createdAt,value
2022-12-25T00:02:05.191Z,6.80
2022-12-25T00:04:31.596Z,5.07
2022-12-25T00:06:59.478Z,3.88
2022-12-25T00:09:29.071Z,3.67
2022-12-25T00:11:56.562Z,9.98
2022-12-25T00:14:23.984Z,4.07
2022-12-25T00:16:50.473Z,4.65
2022-12-25T00:19:16.887Z,5.93
2022-12-25T00:21:43.331Z,3.40
2022-12-25T00:24:09.848Z,4.18
2022-12-25T00:26:36.301Z,5.78
2022-12-25T00:29:02.652Z,4.35
2022-12-25T00:31:29.217Z,4.80
2022-12-25T00:33:56.758Z,6.47
2022-12-25T00:36:23.547Z,4.28
2022-12-25T00:38:49.940Z,4.10
2022-12-25T00:41:39.200Z,2.67
2022-12-25T00:44:06.600Z,4.93
2022-12-25T00:46:33.124Z,3.80
2022-12-25T00:49:02.651Z,4.63
2022-12-25T00:51:29.225Z,6.43
2022-12-25T00:53:55.598Z,6.82
2022-12-25T00:56:21.997Z,5.13
2022-12-25T00:58:48.642Z,7.07
2022-12-25T01:01:15.275Z,6.55
2022-12-25T01:03:41.833Z,5.57
2022-12-25T01:06:12.651Z,4.75
2022-12-25T01:08:59.950Z,5.78
2022-12-25T01:11:26.910Z,5.60
2022-12-25T01:13:53.287Z,5.97
2022-12-25T01:16:19.775Z,5.70
2022-12-25T01:18:46.630Z,6.30
2022-12-25T01:21:20.906Z,4.78
2022-12-25T01:23:50.446Z,5.32
2022-12-25T01:26:18.100Z,5.82
2022-12-25T01:28:44.614Z,6.13
2022-12-25T01:31:13.988Z,3.33
2022-12-25T01:33:42.347Z,3.25
2022-12-25T01:36:28.987Z,4.10
2022-12-25T01:38:55.593Z,6.78
2022-12-25T01:41:24.497Z,4.93
2022-12-25T01:44:14.165Z,6.13
2022-12-25T01:46:41.246Z,4.40
2022-12-25T01:49:22.514Z,4.70
2022-12-25T01:52:18.890Z,8.50
2022-12-25T01:54:59.812Z,5.97
2022-12-25T01:57:30.635Z,8.68
2022-12-25T01:59:58.234Z,9.05
2022-12-25T02:02:25.561Z,7.38
2022-12-25T02:05:30.000Z,8.43
2022-12-25T02:08:01.884Z,7.05
2022-12-25T02:10:28.567Z,8.13
2022-12-25T02:12:55.381Z,8.15
2022-12-25T02:15:26.916Z,7.65
2022-12-25T02:18:12.060Z,7.65
2022-12-25T02:21:03.185Z,6.70
2022-12-25T02:23:42.107Z,5.30
2022-12-25T02:26:47.824Z,5.65
2022-12-25T02:29:25.172Z,7.68
2022-12-25T02:32:07.936Z,9.15
2022-12-25T02:34:45.054Z,6.65
2022-12-25T02:37:56.528Z,6.50
2022-12-25T02:40:40.001Z,7.45
2022-12-25T02:43:33.039Z,7.55
2022-12-25T02:46:22.470Z,6.78
2022-12-25T02:49:15.320Z,5.82
2022-12-25T02:52:04.049Z,8.13
2022-12-25T02:54:53.859Z,7.53
2022-12-25T02:57:43.109Z,7.72
2022-12-25T03:00:29.380Z,5.82
2022-12-25T03:03:17.793Z,7.43
2022-12-25T03:06:04.037Z,7.00
2022-12-25T03:08:36.811Z,7.78
2022-12-25T03:11:25.362Z,6.53
2022-12-25T03:13:55.565Z,9.43
2022-12-25T03:16:41.573Z,7.18
2022-12-25T03:19:27.125Z,11.35
2022-12-25T03:22:15.552Z,11.27
2022-12-25T03:25:00.872Z,6.55
2022-12-25T03:27:31.918Z,7.30
2022-12-25T03:30:17.136Z,8.27
2022-12-25T03:32:58.623Z,6.00
2022-12-25T03:35:46.495Z,9.50
2022-12-25T03:38:49.967Z,6.78
2022-12-25T03:42:02.343Z,7.25
2022-12-25T03:45:18.578Z,8.50
2022-12-25T03:48:07.069Z,5.85
2022-12-25T03:50:57.559Z,10.65
2022-12-25T03:53:49.995Z,10.70
2022-12-25T03:56:36.045Z,8.27
2022-12-25T03:59:24.078Z,7.93
2022-12-25T04:04:55.928Z,6.15
2022-12-25T04:07:40.639Z,7.30
2022-12-25T04:10:26.495Z,7.13
2022-12-25T04:13:11.871Z,7.80
2022-12-25T04:15:56.683Z,7.18
2022-12-25T04:18:41.520Z,10.32
2022-12-25T04:21:26.461Z,10.00
2022-12-25T04:24:11.209Z,10.43
2022-12-25T04:26:55.934Z,6.38
2022-12-25T04:29:40.720Z,9.90
2022-12-25T04:32:25.576Z,9.20
2022-12-25T04:35:10.815Z,8.50
2022-12-25T04:37:37.187Z,9.88
2022-12-25T04:40:05.270Z,13.32
2022-12-25T04:42:31.705Z,7.93
2022-12-25T04:44:58.104Z,7.00
2022-12-25T04:47:24.494Z,6.28
2022-12-25T04:49:50.984Z,6.55
2022-12-25T04:52:17.375Z,6.43
2022-12-25T04:54:43.816Z,5.70
2022-12-25T04:57:10.205Z,8.50
2022-12-25T04:59:36.570Z,8.15
2022-12-25T05:02:03.104Z,7.50
2022-12-25T05:04:29.592Z,8.15
2022-12-25T05:06:55.989Z,7.18
2022-12-25T05:09:22.529Z,12.07
2022-12-25T05:11:49.067Z,8.85
2022-12-25T05:14:15.718Z,9.13
2022-12-25T05:16:42.250Z,10.55
2022-12-25T05:19:09.629Z,8.63
2022-12-25T05:21:36.332Z,10.25
2022-12-25T05:24:02.737Z,11.73
2022-12-25T05:26:29.177Z,14.95
2022-12-25T05:28:56.534Z,12.13
2022-12-25T05:31:23.214Z,11.30
2022-12-25T05:33:51.448Z,13.38
2022-12-25T05:36:18.131Z,13.07
2022-12-25T05:38:44.583Z,14.38
2022-12-25T05:41:11.052Z,11.27
2022-12-25T05:43:37.469Z,13.43
2022-12-25T05:46:09.177Z,16.10
2022-12-25T05:48:37.428Z,12.95
2022-12-25T05:51:12.539Z,12.35
2022-12-25T05:53:39.435Z,10.27
2022-12-25T05:56:07.987Z,11.40
2022-12-25T05:58:35.584Z,12.77
2022-12-25T06:01:02.497Z,14.63
2022-12-25T06:03:29.443Z,11.35
2022-12-25T06:05:55.913Z,10.38
2022-12-25T06:08:22.271Z,10.32
2022-12-25T06:10:49.359Z,12.85
2022-12-25T06:13:15.689Z,14.07
2022-12-25T06:15:42.359Z,12.15
2022-12-25T06:18:08.880Z,11.63
2022-12-25T06:20:35.283Z,12.43
2022-12-25T06:23:02.162Z,12.73
2022-12-25T06:25:28.656Z,13.80
2022-12-25T06:27:55.150Z,16.40
2022-12-25T06:30:21.644Z,15.25
2022-12-25T06:32:48.156Z,12.75
2022-12-25T06:35:14.566Z,15.68
2022-12-25T06:37:40.967Z,14.15
2022-12-25T06:40:08.000Z,13.75
2022-12-25T06:42:34.422Z,13.18
2022-12-25T06:45:00.787Z,14.55
2022-12-25T06:47:27.201Z,15.35
2022-12-25T06:49:53.575Z,12.02
2022-12-25T06:52:20.089Z,12.60
2022-12-25T06:54:47.375Z,14.48
2022-12-25T06:57:13.790Z,14.20
2022-12-25T06:59:40.290Z,13.25
2022-12-25T07:02:21.636Z,15.38
2022-12-25T07:04:48.581Z,10.80
2022-12-25T07:07:15.297Z,10.70
2022-12-25T07:09:42.570Z,13.82
2022-12-25T07:12:20.808Z,16.08
2022-12-25T07:14:49.801Z,14.73
2022-12-25T07:17:17.331Z,16.17
2022-12-25T07:19:45.307Z,17.73
2022-12-25T07:22:12.803Z,18.75
2022-12-25T07:24:39.336Z,15.82
2022-12-25T07:27:06.378Z,11.52
2022-12-25T07:29:32.732Z,16.55
2022-12-25T07:31:59.214Z,13.52
2022-12-25T07:34:25.908Z,11.63
2022-12-25T07:36:54.636Z,13.00
2022-12-25T07:39:21.005Z,14.38
2022-12-25T07:41:47.406Z,11.60
2022-12-25T07:44:13.781Z,11.88
2022-12-25T07:46:40.277Z,10.88
2022-12-25T07:49:06.689Z,12.95
2022-12-25T07:51:33.275Z,13.60
2022-12-25T07:53:59.626Z,13.82
2022-12-25T07:56:26.132Z,13.70
2022-12-25T07:58:52.622Z,9.38
2022-12-25T08:01:22.692Z,10.75
2022-12-25T08:04:02.780Z,10.77
2022-12-25T08:06:34.893Z,10.27
2022-12-25T08:09:10.324Z,9.75
2022-12-25T08:11:37.640Z,8.50
2022-12-25T08:14:08.508Z,8.18
2022-12-25T08:16:35.457Z,11.38
2022-12-25T08:19:01.943Z,9.73
2022-12-25T08:21:28.415Z,12.02
2022-12-25T08:23:54.829Z,9.35
2022-12-25T08:26:23.049Z,9.52
2022-12-25T08:28:50.460Z,10.35
2022-12-25T08:31:23.002Z,9.90
2022-12-25T08:33:51.751Z,8.60
2022-12-25T08:36:18.248Z,10.52
2022-12-25T08:38:45.653Z,9.82
2022-12-25T08:41:15.048Z,10.15
2022-12-25T08:43:41.723Z,9.40
2022-12-25T08:46:08.551Z,10.43
2022-12-25T08:48:35.463Z,10.40
2022-12-25T08:51:02.525Z,9.20
2022-12-25T08:53:29.056Z,9.63
2022-12-25T08:56:06.430Z,9.18
2022-12-25T08:58:33.521Z,10.57
2022-12-25T09:01:00.595Z,10.52
2022-12-25T09:03:27.651Z,13.55
2022-12-25T09:05:54.803Z,13.55
2022-12-25T09:08:21.774Z,11.48
2022-12-25T09:10:49.005Z,13.57
2022-12-25T09:13:15.675Z,10.57
2022-12-25T09:15:42.105Z,13.20
2022-12-25T09:18:08.489Z,6.10
2022-12-25T09:20:34.854Z,8.00
2022-12-25T09:23:01.210Z,7.43
2022-12-25T09:25:27.786Z,7.40
2022-12-25T09:27:56.646Z,7.88
2022-12-25T09:30:23.167Z,10.23
2022-12-25T09:32:49.626Z,8.85
2022-12-25T09:35:18.384Z,6.43
2022-12-25T09:37:45.292Z,7.10
2022-12-25T09:40:21.124Z,8.02
2022-12-25T09:42:49.368Z,11.15
2022-12-25T09:45:25.970Z,6.57
2022-12-25T09:47:56.799Z,8.45
2022-12-25T09:50:38.089Z,9.35
2022-12-25T09:53:12.585Z,9.55
2022-12-25T09:55:48.391Z,8.85
2022-12-25T09:58:14.819Z,7.70
2022-12-25T10:00:46.737Z,6.78
2022-12-25T10:03:44.077Z,6.25
2022-12-25T10:06:20.687Z,5.38
2022-12-25T10:09:11.270Z,7.50
2022-12-25T10:11:49.902Z,7.50
2022-12-25T10:14:23.607Z,6.10
2022-12-25T10:17:02.121Z,7.88
2022-12-25T10:19:56.456Z,6.22
2022-12-25T10:22:42.379Z,5.65
2022-12-25T10:25:17.241Z,4.63
2022-12-25T10:27:43.766Z,5.03
2022-12-25T10:30:15.844Z,5.65
2022-12-25T10:32:43.290Z,4.85
2022-12-25T10:35:18.624Z,6.22
2022-12-25T10:37:52.594Z,6.55
2022-12-25T10:40:39.678Z,6.65
2022-12-25T10:43:16.443Z,5.18
2022-12-25T10:45:47.292Z,6.38
2022-12-25T10:48:25.280Z,5.60
2022-12-25T10:50:53.015Z,5.15
2022-12-25T10:53:26.388Z,6.78
2022-12-25T10:55:58.420Z,6.18
2022-12-25T10:58:25.440Z,6.10
2022-12-25T11:00:59.036Z,5.68
2022-12-25T11:03:30.443Z,5.60
2022-12-25T11:05:57.952Z,5.80
2022-12-25T11:08:27.573Z,5.80
2022-12-25T11:10:57.393Z,7.07
2022-12-25T11:13:29.077Z,8.40
2022-12-25T11:16:15.002Z,5.88
2022-12-25T11:18:48.108Z,4.22
2022-12-25T11:21:22.335Z,5.60
2022-12-25T11:23:55.466Z,6.53
2022-12-25T11:26:21.844Z,5.25
2022-12-25T11:28:51.152Z,5.22
2022-12-25T11:31:23.415Z,4.05
2022-12-25T11:34:05.189Z,4.93
2022-12-25T11:36:45.523Z,5.95
2022-12-25T11:39:16.428Z,5.03
2022-12-25T11:41:43.906Z,3.83
2022-12-25T11:44:28.542Z,7.32
2022-12-25T11:46:56.157Z,3.90
2022-12-25T11:49:23.271Z,5.72
2022-12-25T11:51:53.621Z,5.80
2022-12-25T11:54:24.035Z,6.43
2022-12-25T11:56:52.412Z,4.47
2022-12-25T11:59:26.371Z,5.95
2022-12-25T12:01:58.730Z,4.93
2022-12-25T12:04:42.409Z,4.90
2022-12-25T12:07:26.650Z,4.70
2022-12-25T12:10:18.219Z,4.95
2022-12-25T12:13:04.237Z,6.90
2022-12-25T12:15:44.050Z,4.18
2022-12-25T12:18:30.534Z,5.70
2022-12-25T12:20:58.285Z,4.00
2022-12-25T12:23:25.371Z,4.50
2022-12-25T12:25:52.568Z,6.00
2022-12-25T12:28:26.274Z,7.43
2022-12-25T12:31:02.349Z,4.55
2022-12-25T12:33:34.607Z,5.53
2022-12-25T12:36:03.708Z,4.60
2022-12-25T12:38:32.198Z,4.95
2022-12-25T12:41:04.146Z,4.97
2022-12-25T12:43:48.202Z,2.88
2022-12-25T12:46:27.681Z,4.40
2022-12-25T12:49:21.866Z,5.70
2022-12-25T12:51:49.300Z,3.22
2022-12-25T12:54:24.212Z,4.88
2022-12-25T12:57:06.023Z,3.08
2022-12-25T12:59:44.323Z,4.68
2022-12-25T13:02:29.368Z,3.33
2022-12-25T13:05:34.641Z,3.72
2022-12-25T13:08:27.295Z,5.35
2022-12-25T13:11:22.315Z,5.35
2022-12-25T13:13:52.144Z,5.25
2022-12-25T13:16:36.760Z,5.32
2022-12-25T13:19:12.029Z,5.90
2022-12-25T13:21:38.678Z,4.38
2022-12-25T13:24:17.860Z,4.68
2022-12-25T13:26:44.246Z,6.30
2022-12-25T13:29:36.173Z,4.43
2022-12-25T13:32:05.871Z,5.75
2022-12-25T13:34:40.819Z,5.82
2022-12-25T13:37:10.322Z,4.97
2022-12-25T13:39:39.328Z,8.05
2022-12-25T13:42:09.352Z,5.70
2022-12-25T13:44:44.913Z,4.43
2022-12-25T13:47:22.759Z,3.45
2022-12-25T13:49:51.147Z,3.85
2022-12-25T13:52:42.591Z,4.07
2022-12-25T13:55:11.955Z,4.30
2022-12-25T13:57:41.525Z,4.10
2022-12-25T14:00:17.257Z,7.28
2022-12-25T14:02:45.368Z,5.03
2022-12-25T14:05:41.361Z,4.75
2022-12-25T14:08:22.117Z,6.57
2022-12-25T14:10:52.350Z,6.03
2022-12-25T14:13:22.472Z,3.97
2022-12-25T14:15:50.160Z,6.55
2022-12-25T14:18:18.669Z,4.75
2022-12-25T14:21:21.569Z,5.55
2022-12-25T14:23:50.006Z,5.78
2022-12-25T14:26:20.373Z,5.03
2022-12-25T14:29:13.944Z,4.93
2022-12-25T14:31:47.220Z,5.00
2022-12-25T14:34:18.414Z,4.95
2022-12-25T14:36:45.390Z,6.72
2022-12-25T14:39:31.511Z,3.75
2022-12-25T14:41:58.330Z,5.15
2022-12-25T14:44:42.670Z,6.50
2022-12-25T14:47:20.410Z,6.07
2022-12-25T14:49:48.155Z,6.95
2022-12-25T14:52:37.305Z,5.85
2022-12-25T14:55:07.755Z,6.00
2022-12-25T14:57:39.110Z,7.75
2022-12-25T15:00:23.670Z,4.68
2022-12-25T15:02:53.768Z,4.78
2022-12-25T15:05:24.728Z,6.40
2022-12-25T15:08:10.166Z,7.70
2022-12-25T15:13:25.752Z,6.22
2022-12-25T15:15:57.590Z,7.80
2022-12-25T15:18:27.485Z,4.88
2022-12-25T15:20:55.329Z,7.15
2022-12-25T15:23:22.215Z,4.25
2022-12-25T15:25:48.728Z,6.65
2022-12-25T15:28:15.175Z,4.82
2022-12-25T15:30:41.698Z,3.88
2022-12-25T15:33:14.754Z,5.93
2022-12-25T15:35:41.849Z,6.70
2022-12-25T15:38:09.444Z,8.57
2022-12-25T15:40:35.947Z,6.68
2022-12-25T15:43:06.352Z,5.55
2022-12-25T15:45:38.183Z,5.07
2022-12-25T15:48:04.770Z,6.07
2022-12-25T15:50:32.567Z,3.80
2022-12-25T15:52:58.998Z,5.78
2022-12-25T15:55:26.679Z,8.07
2022-12-25T15:57:54.574Z,6.32
2022-12-25T16:00:23.337Z,5.93
2022-12-25T16:02:54.360Z,6.28
2022-12-25T16:07:56.212Z,6.97
2022-12-25T16:10:22.942Z,8.57
2022-12-25T16:12:51.535Z,4.82
2022-12-25T16:15:19.259Z,5.05
2022-12-25T16:17:51.626Z,5.45
2022-12-25T16:20:22.481Z,5.60
2022-12-25T16:25:24.497Z,6.75
2022-12-25T16:28:00.335Z,5.28
2022-12-25T16:30:27.196Z,5.70
2022-12-25T16:32:56.849Z,7.40
2022-12-25T16:35:24.996Z,8.00
2022-12-25T16:37:59.078Z,5.95
2022-12-25T16:40:29.513Z,7.93
2022-12-25T16:42:56.347Z,8.40
2022-12-25T16:45:26.114Z,6.63
2022-12-25T16:47:56.746Z,7.82
2022-12-25T16:50:24.386Z,6.10
2022-12-25T16:52:56.011Z,5.00
2022-12-25T16:55:30.370Z,5.93
2022-12-25T16:57:57.212Z,7.07
2022-12-25T17:00:24.748Z,6.57
2022-12-25T17:02:51.667Z,9.25
2022-12-25T17:05:20.400Z,12.98
2022-12-25T17:07:49.835Z,17.40
2022-12-25T17:10:18.697Z,7.88
2022-12-25T17:12:47.979Z,9.13
2022-12-25T17:15:15.885Z,9.00
2022-12-25T17:17:43.300Z,5.90
2022-12-25T17:20:12.044Z,7.90
2022-12-25T17:22:42.359Z,5.95
2022-12-25T17:25:17.051Z,7.60
2022-12-25T17:27:45.389Z,6.22
2022-12-25T17:30:17.247Z,7.13
2022-12-25T17:32:44.364Z,10.43
2022-12-25T17:35:10.805Z,7.90
2022-12-25T17:37:37.165Z,7.43
2022-12-25T17:40:04.149Z,9.55
2022-12-25T17:42:30.572Z,9.98
2022-12-25T17:44:57.091Z,8.40
2022-12-25T17:47:23.505Z,7.72
2022-12-25T17:49:50.999Z,7.65
2022-12-25T17:52:17.662Z,9.40
2022-12-25T17:54:44.111Z,8.13
2022-12-25T17:57:10.589Z,8.73
2022-12-25T17:59:36.956Z,6.75
2022-12-25T18:02:03.514Z,8.07
2022-12-25T18:04:29.912Z,8.55
2022-12-25T18:06:56.401Z,8.25
2022-12-25T18:09:22.832Z,19.88
2022-12-25T18:11:49.213Z,11.90
2022-12-25T18:14:16.617Z,7.05
2022-12-25T18:16:45.057Z,6.75
2022-12-25T18:19:12.726Z,8.13
2022-12-25T18:21:39.312Z,8.07
2022-12-25T18:24:07.190Z,10.18
2022-12-25T18:26:34.342Z,10.50
2022-12-25T18:29:00.907Z,8.40
2022-12-25T18:31:30.131Z,7.30
2022-12-25T18:33:58.260Z,5.47
2022-12-25T18:36:25.994Z,4.68
2022-12-25T18:38:54.036Z,5.45
2022-12-25T18:41:22.202Z,6.13
2022-12-25T18:43:52.569Z,6.43
2022-12-25T18:46:23.885Z,7.07
2022-12-25T18:48:53.214Z,5.57
2022-12-25T18:51:19.865Z,6.82
2022-12-25T18:53:48.767Z,7.97
2022-12-25T18:56:17.682Z,6.45
2022-12-25T18:58:45.612Z,5.25
2022-12-25T19:01:18.760Z,5.80
2022-12-25T19:03:46.122Z,7.28
2022-12-25T19:06:21.603Z,6.50
2022-12-25T19:08:48.554Z,6.10
2022-12-25T19:11:16.290Z,5.85
2022-12-25T19:13:43.313Z,7.30
2022-12-25T19:16:10.133Z,5.07
2022-12-25T19:18:37.619Z,7.05
2022-12-25T19:21:06.718Z,6.53
2022-12-25T19:23:33.443Z,6.75
2022-12-25T19:26:00.045Z,7.80
2022-12-25T19:28:26.480Z,10.02
2022-12-25T19:30:54.077Z,6.82
2022-12-25T19:33:21.690Z,5.25
2022-12-25T19:35:48.909Z,5.80
2022-12-25T19:38:15.823Z,6.45
2022-12-25T19:40:59.951Z,6.55
2022-12-25T19:43:32.052Z,7.70
2022-12-25T19:46:01.863Z,6.13
2022-12-25T19:48:28.392Z,6.35
2022-12-25T19:50:54.958Z,7.53
2022-12-25T19:53:23.674Z,6.32
2022-12-25T19:55:52.361Z,6.97
2022-12-25T19:58:20.359Z,6.55
2022-12-25T20:01:07.324Z,6.50
2022-12-25T20:03:41.744Z,5.70
2022-12-25T20:06:19.675Z,6.03
2022-12-25T20:08:47.461Z,5.10
2022-12-25T20:11:14.228Z,6.95
2022-12-25T20:13:40.744Z,4.63
2022-12-25T20:16:08.996Z,6.90
2022-12-25T20:18:37.009Z,8.20
2022-12-25T20:21:06.489Z,6.40
2022-12-25T20:23:33.497Z,7.93
2022-12-25T20:26:04.183Z,5.82
2022-12-25T20:28:32.363Z,8.48
2022-12-25T20:31:08.829Z,4.57
2022-12-25T20:33:39.457Z,7.57
2022-12-25T20:36:09.466Z,5.28
2022-12-25T20:38:37.251Z,5.60
2022-12-25T20:41:29.672Z,6.85
2022-12-25T20:43:58.587Z,6.30
2022-12-25T20:46:26.191Z,7.40
2022-12-25T20:48:53.514Z,5.80
2022-12-25T20:51:27.849Z,6.85
2022-12-25T20:53:55.388Z,6.65
2022-12-25T20:56:25.976Z,6.75
2022-12-25T20:59:00.764Z,6.75
2022-12-25T21:01:32.201Z,5.80
2022-12-25T21:03:59.884Z,6.68
2022-12-25T21:06:28.389Z,7.30
2022-12-25T21:08:57.878Z,7.38
2022-12-25T21:11:26.569Z,6.22
2022-12-25T21:13:54.329Z,5.53
2022-12-25T21:16:22.758Z,7.68
2022-12-25T21:18:51.003Z,7.13
2022-12-25T21:21:17.636Z,6.90
2022-12-25T21:23:45.444Z,6.32
2022-12-25T21:26:26.594Z,8.38
2022-12-25T21:28:57.561Z,7.75
2022-12-25T21:31:24.751Z,5.25
2022-12-25T21:33:51.226Z,5.80
2022-12-25T21:36:24.135Z,6.15
2022-12-25T21:39:05.251Z,4.70
2022-12-25T21:41:33.343Z,5.03
2022-12-25T21:44:00.406Z,7.68
2022-12-25T21:46:27.925Z,7.75
2022-12-25T21:48:55.004Z,6.35
2022-12-25T21:51:46.581Z,9.70
2022-12-25T21:54:14.468Z,8.38
2022-12-25T21:56:44.809Z,6.75
2022-12-25T21:59:17.462Z,7.10
2022-12-25T22:01:44.742Z,10.15
2022-12-25T22:04:12.854Z,8.18
2022-12-25T22:06:58.078Z,4.65
2022-12-25T22:09:24.825Z,6.18
2022-12-25T22:12:10.072Z,8.13
2022-12-25T22:14:56.775Z,5.20
2022-12-25T22:17:44.157Z,9.85
2022-12-25T22:20:21.622Z,6.65
2022-12-25T22:22:48.978Z,11.02
2022-12-25T22:25:16.877Z,8.65
2022-12-25T22:27:46.488Z,8.60
2022-12-25T22:30:16.052Z,6.63
2022-12-25T22:32:42.936Z,6.15
2022-12-25T22:35:10.077Z,6.93
2022-12-25T22:37:36.775Z,8.70
2022-12-25T22:40:05.825Z,12.77
2022-12-25T22:42:32.570Z,11.80
2022-12-25T22:44:59.016Z,8.52
2022-12-25T22:47:25.468Z,6.40
2022-12-25T22:49:51.911Z,10.07
2022-12-25T22:52:18.634Z,7.40
2022-12-25T22:54:44.991Z,8.93
2022-12-25T22:57:11.372Z,10.95
2022-12-25T22:59:37.786Z,8.20
2022-12-25T23:02:04.305Z,9.00
2022-12-25T23:04:30.829Z,9.18
2022-12-25T23:06:57.367Z,9.40
2022-12-25T23:09:27.616Z,7.28
2022-12-25T23:11:58.581Z,9.05
2022-12-25T23:14:41.569Z,8.52
2022-12-25T23:17:31.570Z,7.28
2022-12-25T23:20:18.661Z,6.60
2022-12-25T23:23:05.180Z,9.88
2022-12-25T23:25:50.609Z,11.68
2022-12-25T23:28:39.611Z,8.77
2022-12-25T23:31:06.617Z,8.48
2022-12-25T23:33:33.145Z,9.82
2022-12-25T23:35:59.627Z,8.30
2022-12-25T23:38:25.999Z,9.50
2022-12-25T23:40:52.681Z,9.93
2022-12-25T23:43:19.357Z,9.93
2022-12-25T23:45:45.762Z,7.70
2022-12-25T23:48:12.157Z,10.93
2022-12-25T23:50:38.525Z,9.30
2022-12-25T23:53:04.860Z,8.32
2022-12-25T23:55:32.850Z,10.13
2022-12-25T23:57:59.235Z,8.57
